createdAt,value
2022-09-23T00:01:39.613Z,100.00
2022-09-23T00:04:07.480Z,100.00
2022-09-23T00:06:35.321Z,100.00
2022-09-23T00:09:03.458Z,100.00
2022-09-23T00:11:33.071Z,100.00
2022-09-23T00:14:01.493Z,100.00
2022-09-23T00:16:34.253Z,100.00
2022-09-23T00:19:03.458Z,100.00
2022-09-23T00:21:31.367Z,100.00
2022-09-23T00:23:59.302Z,100.00
2022-09-23T00:26:27.984Z,100.00
2022-09-23T00:28:55.920Z,100.00
2022-09-23T00:31:26.392Z,100.00
2022-09-23T00:34:04.228Z,100.00
2022-09-23T00:36:32.565Z,100.00
2022-09-23T00:39:00.685Z,100.00
2022-09-23T00:41:28.639Z,100.00
2022-09-23T00:44:00.974Z,100.00
2022-09-23T00:46:36.245Z,100.00
2022-09-23T00:49:11.140Z,100.00
2022-09-23T00:51:45.653Z,100.00
2022-09-23T00:54:13.612Z,100.00
2022-09-23T00:56:41.686Z,100.00
2022-09-23T00:59:10.899Z,100.00
2022-09-23T01:01:39.956Z,100.00
2022-09-23T01:04:08.804Z,100.00
2022-09-23T01:06:36.731Z,100.00
2022-09-23T01:09:04.711Z,100.00
2022-09-23T01:11:54.256Z,100.00
2022-09-23T01:14:37.393Z,100.00
2022-09-23T01:17:24.424Z,100.00
2022-09-23T01:20:20.552Z,100.00
2022-09-23T01:23:11.546Z,100.00
2022-09-23T01:25:41.064Z,100.00
2022-09-23T01:28:19.023Z,100.00
2022-09-23T01:31:24.364Z,100.00
2022-09-23T01:34:04.948Z,100.00
2022-09-23T01:37:08.167Z,100.00
2022-09-23T01:39:39.295Z,100.00
2022-09-23T01:42:29.609Z,100.00
2022-09-23T01:45:15.004Z,100.00
2022-09-23T01:47:55.075Z,100.00
2022-09-23T01:50:51.794Z,100.00
2022-09-23T01:53:43.709Z,100.00
2022-09-23T01:56:32.791Z,100.00
2022-09-23T01:59:10.430Z,100.00
2022-09-23T02:01:51.351Z,100.00
2022-09-23T02:04:51.688Z,100.00
2022-09-23T02:07:30.190Z,100.00
2022-09-23T02:10:06.976Z,100.00
2022-09-23T02:12:38.411Z,100.00
2022-09-23T02:15:12.230Z,100.00
2022-09-23T02:17:49.857Z,100.00
2022-09-23T02:20:24.371Z,100.00
2022-09-23T02:22:56.834Z,100.00
2022-09-23T02:25:35.498Z,100.00
2022-09-23T02:28:11.845Z,100.00
2022-09-23T02:31:00.335Z,100.00
2022-09-23T02:33:36.698Z,100.00
2022-09-23T02:36:19.593Z,100.00
2022-09-23T02:38:59.266Z,100.00
2022-09-23T02:41:37.630Z,100.00
2022-09-23T02:44:12.875Z,100.00
2022-09-23T02:46:43.439Z,100.00
2022-09-23T02:49:24.824Z,100.00
2022-09-23T02:52:00.688Z,100.00
2022-09-23T02:54:29.597Z,100.00
2022-09-23T02:57:02.970Z,100.00
2022-09-23T02:59:31.451Z,100.00
2022-09-23T03:02:14.190Z,100.00
2022-09-23T03:04:50.491Z,100.00
2022-09-23T03:07:49.936Z,100.00
2022-09-23T03:10:26.398Z,100.00
2022-09-23T03:13:04.997Z,100.00
2022-09-23T03:16:00.013Z,100.00
2022-09-23T03:18:51.541Z,100.00
2022-09-23T03:21:54.298Z,100.00
2022-09-23T03:24:25.044Z,100.00
2022-09-23T03:26:55.294Z,100.00
2022-09-23T03:29:23.765Z,100.00
2022-09-23T03:31:53.446Z,100.00
2022-09-23T03:34:27.171Z,100.00
2022-09-23T03:37:01.246Z,100.00
2022-09-23T03:39:51.073Z,100.00
2022-09-23T03:42:23.677Z,100.00
2022-09-23T03:44:57.532Z,100.00
2022-09-23T03:47:27.770Z,100.00
2022-09-23T03:49:56.903Z,100.00
2022-09-23T03:52:26.355Z,100.00
2022-09-23T03:55:51.004Z,100.00
2022-09-23T03:58:38.295Z,100.00
2022-09-23T04:01:06.338Z,100.00
2022-09-23T04:03:34.311Z,100.00
2022-09-23T04:06:02.174Z,100.00
2022-09-23T04:08:30.094Z,100.00
2022-09-23T04:11:02.831Z,100.00
2022-09-23T04:13:32.024Z,100.00
2022-09-23T04:16:00.023Z,100.00
2022-09-23T04:18:28.039Z,100.00
2022-09-23T04:21:02.640Z,100.00
2022-09-23T04:23:30.874Z,100.00
2022-09-23T04:25:58.850Z,100.00
2022-09-23T04:28:26.985Z,100.00
2022-09-23T04:30:56.302Z,100.00
2022-09-23T04:33:25.483Z,100.00
2022-09-23T04:35:55.323Z,100.00
2022-09-23T04:38:23.617Z,100.00
2022-09-23T04:40:51.598Z,100.00
2022-09-23T04:43:23.525Z,100.00
2022-09-23T04:46:03.329Z,100.00
2022-09-23T04:48:31.950Z,100.00
2022-09-23T04:51:04.963Z,100.00
2022-09-23T04:53:33.614Z,100.00
2022-09-23T04:56:29.020Z,100.00
2022-09-23T04:58:58.428Z,100.00
2022-09-23T05:01:29.168Z,100.00
2022-09-23T05:04:02.592Z,100.00
2022-09-23T05:06:32.419Z,100.00
2022-09-23T05:09:00.855Z,100.00
2022-09-23T05:11:31.428Z,100.00
2022-09-23T05:14:00.021Z,100.00
2022-09-23T05:16:28.136Z,100.00
2022-09-23T05:18:56.360Z,100.00
2022-09-23T05:21:27.048Z,100.00
2022-09-23T05:23:59.175Z,100.00
2022-09-23T05:26:30.068Z,100.00
2022-09-23T05:28:58.731Z,100.00
2022-09-23T05:31:29.671Z,100.00
2022-09-23T05:34:00.852Z,100.00
2022-09-23T05:36:35.554Z,100.00
2022-09-23T05:39:07.077Z,100.00
2022-09-23T05:41:36.119Z,100.00
2022-09-23T05:44:04.368Z,100.00
2022-09-23T05:46:33.339Z,100.00
2022-09-23T05:49:03.285Z,100.00
2022-09-23T05:51:34.825Z,100.00
2022-09-23T05:54:08.859Z,100.00
2022-09-23T05:56:37.919Z,100.00
2022-09-23T05:59:06.965Z,100.00
2022-09-23T06:01:36.835Z,100.00
2022-09-23T06:04:08.337Z,100.00
2022-09-23T06:06:41.553Z,100.00
2022-09-23T06:09:16.282Z,100.00
2022-09-23T06:11:44.290Z,100.00
2022-09-23T06:14:14.955Z,100.00
2022-09-23T06:16:43.282Z,100.00
2022-09-23T06:19:11.436Z,100.00
2022-09-23T06:21:41.070Z,100.00
2022-09-23T06:24:09.811Z,100.00
2022-09-23T06:26:38.962Z,100.00
2022-09-23T06:29:11.966Z,100.00
2022-09-23T06:31:41.825Z,100.00
2022-09-23T06:34:13.478Z,100.00
2022-09-23T06:36:45.564Z,100.00
2022-09-23T06:39:15.643Z,100.00
2022-09-23T06:41:45.459Z,100.00
2022-09-23T06:44:14.887Z,100.00
2022-09-23T06:46:43.128Z,100.00
2022-09-23T06:49:12.290Z,100.00
2022-09-23T06:51:41.180Z,100.00
2022-09-23T06:54:09.596Z,100.00
2022-09-23T06:56:39.726Z,100.00
2022-09-23T06:59:13.258Z,100.00
2022-09-23T07:01:41.915Z,100.00
2022-09-23T07:04:10.886Z,100.00
2022-09-23T07:06:39.191Z,100.00
2022-09-23T07:09:08.695Z,100.00
2022-09-23T07:11:37.148Z,100.00
2022-09-23T07:14:05.685Z,100.00
2022-09-23T07:16:33.669Z,100.00
2022-09-23T07:19:01.614Z,100.00
2022-09-23T07:21:29.600Z,100.00
2022-09-23T07:23:58.382Z,100.00
2022-09-23T07:26:26.479Z,100.00
2022-09-23T07:28:57.032Z,100.00
2022-09-23T07:31:37.005Z,100.00
2022-09-23T07:34:07.883Z,100.00
2022-09-23T07:36:37.645Z,100.00
2022-09-23T07:39:05.633Z,100.00
2022-09-23T07:41:34.619Z,100.00
2022-09-23T07:44:03.297Z,100.00
2022-09-23T07:46:33.406Z,100.00
2022-09-23T07:49:05.539Z,100.00
2022-09-23T07:51:39.653Z,100.00
2022-09-23T07:54:13.250Z,100.00
2022-09-23T07:56:47.980Z,100.00
2022-09-23T07:59:18.469Z,100.00
2022-09-23T08:01:49.136Z,100.00
2022-09-23T08:04:24.303Z,100.00
2022-09-23T08:06:55.268Z,100.00
2022-09-23T08:09:27.155Z,100.00
2022-09-23T08:11:56.530Z,100.00
2022-09-23T08:14:24.946Z,100.00
2022-09-23T08:16:53.776Z,100.00
2022-09-23T08:19:21.690Z,100.00
2022-09-23T08:21:52.307Z,100.00
2022-09-23T08:24:24.359Z,100.00
2022-09-23T08:26:54.468Z,100.00
2022-09-23T08:29:25.032Z,100.00
2022-09-23T08:31:53.915Z,100.00
2022-09-23T08:34:24.418Z,100.00
2022-09-23T08:36:52.487Z,100.00
2022-09-23T08:39:21.066Z,99.92
2022-09-23T08:42:13.510Z,100.00
2022-09-23T08:44:53.656Z,100.00
2022-09-23T08:47:32.488Z,100.00
2022-09-23T08:50:11.768Z,99.46
2022-09-23T08:52:58.731Z,98.09
2022-09-23T08:55:42.554Z,96.76
2022-09-23T08:58:26.044Z,97.28
2022-09-23T09:01:10.769Z,96.64
2022-09-23T09:03:59.186Z,95.60
2022-09-23T09:06:53.543Z,95.19
2022-09-23T09:09:33.798Z,93.14
2022-09-23T09:12:24.189Z,92.61
2022-09-23T09:15:02.818Z,92.85
2022-09-23T09:17:38.512Z,93.07
2022-09-23T09:20:17.551Z,92.82
2022-09-23T09:23:00.750Z,92.29
2022-09-23T09:25:49.861Z,92.46
2022-09-23T09:28:27.025Z,93.27
2022-09-23T09:31:00.046Z,92.58
2022-09-23T09:34:03.095Z,91.15
2022-09-23T09:36:45.957Z,89.12
2022-09-23T09:39:15.317Z,87.19
2022-09-23T09:41:50.880Z,87.37
2022-09-23T09:44:27.051Z,86.10
2022-09-23T09:47:36.745Z,87.26
2022-09-23T09:50:11.063Z,87.11
2022-09-23T09:52:39.909Z,83.89
2022-09-23T09:55:13.715Z,83.93
2022-09-23T09:58:06.010Z,85.71
2022-09-23T10:00:43.259Z,84.87
2022-09-23T10:03:38.249Z,84.70
2022-09-23T10:06:17.451Z,84.76
2022-09-23T10:09:13.977Z,82.22
2022-09-23T10:11:42.258Z,83.64
2022-09-23T10:14:18.668Z,83.16
2022-09-23T10:17:05.595Z,83.86
2022-09-23T10:19:37.243Z,84.15
2022-09-23T10:22:17.122Z,80.62
2022-09-23T10:24:49.884Z,79.82
2022-09-23T10:27:27.227Z,79.29
2022-09-23T10:30:01.458Z,74.46
2022-09-23T10:32:40.169Z,74.76
2022-09-23T10:35:14.706Z,74.85
2022-09-23T10:37:49.727Z,75.28
2022-09-23T10:40:36.580Z,74.26
2022-09-23T10:43:35.852Z,74.11
2022-09-23T10:46:27.000Z,73.25
2022-09-23T10:49:13.505Z,74.51
2022-09-23T10:51:56.221Z,73.15
2022-09-23T10:54:32.973Z,72.56
2022-09-23T10:57:36.047Z,73.57
2022-09-23T11:00:22.471Z,67.63
2022-09-23T11:03:19.570Z,64.88
2022-09-23T11:06:20.101Z,63.13
2022-09-23T11:09:28.524Z,65.91
2022-09-23T11:12:21.435Z,64.85
2022-09-23T11:15:33.196Z,63.48
2022-09-23T11:18:35.339Z,65.12
2022-09-23T11:21:15.188Z,65.34
2022-09-23T11:24:05.123Z,63.79
2022-09-23T11:26:42.480Z,58.46
2022-09-23T11:29:33.102Z,59.51
2022-09-23T11:32:28.480Z,58.64
2022-09-23T11:35:24.539Z,60.24
2022-09-23T11:38:01.766Z,60.80
2022-09-23T11:40:42.361Z,60.68
2022-09-23T11:43:18.648Z,62.71
2022-09-23T11:46:02.834Z,61.23
2022-09-23T11:48:43.926Z,58.91
2022-09-23T11:51:21.989Z,57.17
2022-09-23T11:54:35.202Z,54.04
2022-09-23T11:57:07.318Z,55.22
2022-09-23T12:02:30.859Z,57.66
2022-09-23T12:05:08.479Z,59.11
2022-09-23T12:07:57.478Z,58.91
2022-09-23T12:10:57.826Z,55.81
2022-09-23T12:13:49.176Z,55.73
2022-09-23T12:16:49.246Z,53.34
2022-09-23T12:19:39.027Z,53.31
2022-09-23T12:22:42.784Z,52.30
2022-09-23T12:25:31.144Z,53.22
2022-09-23T12:28:11.766Z,55.47
2022-09-23T12:30:40.735Z,55.46
2022-09-23T12:33:26.570Z,55.48
2022-09-23T12:36:06.962Z,57.10
2022-09-23T12:38:38.817Z,54.99
2022-09-23T12:41:29.972Z,56.06
2022-09-23T12:44:15.734Z,55.46
2022-09-23T12:46:45.723Z,54.16
2022-09-23T12:49:37.294Z,50.78
2022-09-23T12:52:17.507Z,52.46
2022-09-23T12:54:47.253Z,52.51
2022-09-23T12:57:33.779Z,50.95
2022-09-23T13:00:12.781Z,47.73
2022-09-23T13:02:47.039Z,48.18
2022-09-23T13:05:44.718Z,46.89
2022-09-23T13:08:15.162Z,46.74
2022-09-23T13:10:49.546Z,46.80
2022-09-23T13:13:26.870Z,46.42
2022-09-23T13:15:55.129Z,47.43
2022-09-23T13:18:25.513Z,47.01
2022-09-23T13:20:55.127Z,46.22
2022-09-23T13:23:28.103Z,47.10
2022-09-23T13:25:59.624Z,47.80
2022-09-23T13:28:41.886Z,47.28
2022-09-23T13:31:16.064Z,47.22
2022-09-23T13:33:49.159Z,46.81
2022-09-23T13:36:18.920Z,46.67
2022-09-23T13:38:47.245Z,46.67
2022-09-23T13:41:17.311Z,46.88
2022-09-23T13:43:52.116Z,46.07
2022-09-23T13:46:25.286Z,46.51
2022-09-23T13:48:54.937Z,46.30
2022-09-23T13:51:34.166Z,46.44
2022-09-23T13:54:05.319Z,47.03
2022-09-23T13:56:36.666Z,47.04
2022-09-23T13:59:16.340Z,46.93
2022-09-23T14:01:47.184Z,47.21
2022-09-23T14:04:26.000Z,47.33
2022-09-23T14:06:54.715Z,47.33
2022-09-23T14:09:29.080Z,47.29
2022-09-23T14:12:00.259Z,47.33
2022-09-23T14:14:30.513Z,48.24
2022-09-23T14:16:59.456Z,47.13
2022-09-23T14:19:27.472Z,46.96
2022-09-23T14:21:56.646Z,47.16
2022-09-23T14:24:30.664Z,46.39
2022-09-23T14:27:16.362Z,43.01
2022-09-23T14:29:49.540Z,43.51
2022-09-23T14:32:21.250Z,43.55
2022-09-23T14:34:50.428Z,45.79
2022-09-23T14:37:37.145Z,46.76
2022-09-23T14:40:17.543Z,47.10
2022-09-23T14:43:03.852Z,47.65
2022-09-23T14:45:40.559Z,47.88
2022-09-23T14:48:23.181Z,48.14
2022-09-23T14:51:02.622Z,47.04
2022-09-23T14:53:40.922Z,48.35
2022-09-23T14:56:08.796Z,47.30
2022-09-23T14:58:55.603Z,46.47
2022-09-23T15:01:35.908Z,45.52
2022-09-23T15:04:28.141Z,45.39
2022-09-23T15:06:59.797Z,46.10
2022-09-23T15:09:31.099Z,46.12
2022-09-23T15:12:15.166Z,46.35
2022-09-23T15:14:46.683Z,47.35
2022-09-23T15:17:35.266Z,47.81
2022-09-23T15:20:08.504Z,47.90
2022-09-23T15:22:48.786Z,48.35
2022-09-23T15:25:22.571Z,49.24
2022-09-23T15:28:08.777Z,48.77
2022-09-23T15:30:38.389Z,49.19
2022-09-23T15:33:07.098Z,49.24
2022-09-23T15:35:36.322Z,49.02
2022-09-23T15:38:04.331Z,49.34
2022-09-23T15:40:35.531Z,48.94
2022-09-23T15:43:21.174Z,49.00
2022-09-23T15:45:53.379Z,48.60
2022-09-23T15:48:28.969Z,49.09
2022-09-23T15:50:59.307Z,49.78
2022-09-23T15:53:28.312Z,49.35
2022-09-23T15:55:58.732Z,48.69
2022-09-23T15:58:27.800Z,49.34
2022-09-23T16:00:57.258Z,48.55
2022-09-23T16:03:28.782Z,49.04
2022-09-23T16:06:01.347Z,48.38
2022-09-23T16:08:32.481Z,48.93
2022-09-23T16:11:00.548Z,49.05
2022-09-23T16:13:28.631Z,49.28
2022-09-23T16:15:56.644Z,48.94
2022-09-23T16:18:24.676Z,49.50
2022-09-23T16:20:52.677Z,49.95
2022-09-23T16:23:35.818Z,50.14
2022-09-23T16:26:06.589Z,51.02
2022-09-23T16:28:34.920Z,51.61
2022-09-23T16:31:03.238Z,52.34
2022-09-23T16:33:31.131Z,53.12
2022-09-23T16:36:02.385Z,53.73
2022-09-23T16:38:32.084Z,54.69
2022-09-23T16:41:00.824Z,55.03
2022-09-23T16:43:32.786Z,55.07
2022-09-23T16:46:01.297Z,55.25
2022-09-23T16:48:29.381Z,55.96
2022-09-23T16:50:57.414Z,56.34
2022-09-23T16:53:29.825Z,56.95
2022-09-23T16:56:00.545Z,58.03
2022-09-23T16:58:28.653Z,58.23
2022-09-23T17:01:16.649Z,59.06
2022-09-23T17:03:44.601Z,60.91
2022-09-23T17:06:13.746Z,62.11
2022-09-23T17:08:42.973Z,63.05
2022-09-23T17:11:11.121Z,64.09
2022-09-23T17:13:42.551Z,64.90
2022-09-23T17:16:21.745Z,65.98
2022-09-23T17:18:49.843Z,66.03
2022-09-23T17:21:17.849Z,66.29
2022-09-23T17:23:45.798Z,66.50
2022-09-23T17:26:15.283Z,66.95
2022-09-23T17:28:43.257Z,68.47
2022-09-23T17:31:11.287Z,71.98
2022-09-23T17:33:39.589Z,73.05
2022-09-23T17:36:09.700Z,73.26
2022-09-23T17:38:41.250Z,72.50
2022-09-23T17:41:10.020Z,72.48
2022-09-23T17:43:39.047Z,74.10
2022-09-23T17:46:10.271Z,75.03
2022-09-23T17:48:41.552Z,75.30
2022-09-23T17:51:17.563Z,74.85
2022-09-23T17:53:47.741Z,74.80
2022-09-23T17:56:15.627Z,75.51
2022-09-23T17:58:46.191Z,77.48
2022-09-23T18:01:19.819Z,78.15
2022-09-23T18:03:48.901Z,79.44
2022-09-23T18:06:19.442Z,80.24
2022-09-23T18:08:49.639Z,80.51
2022-09-23T18:11:21.270Z,80.82
2022-09-23T18:13:52.771Z,81.67
2022-09-23T18:16:23.174Z,81.87
2022-09-23T18:18:56.066Z,82.41
2022-09-23T18:21:27.270Z,82.59
2022-09-23T18:23:59.818Z,83.16
2022-09-23T18:26:35.309Z,83.61
2022-09-23T18:29:04.199Z,83.64
2022-09-23T18:31:35.437Z,83.78
2022-09-23T18:34:07.002Z,84.81
2022-09-23T18:36:35.180Z,84.74
2022-09-23T18:39:03.925Z,83.93
2022-09-23T18:41:32.064Z,84.51
2022-09-23T18:44:00.251Z,85.56
2022-09-23T18:46:30.206Z,86.13
2022-09-23T18:49:18.164Z,86.21
2022-09-23T18:51:56.030Z,87.04
2022-09-23T18:54:28.209Z,87.35
2022-09-23T18:56:56.839Z,87.12
2022-09-23T18:59:29.965Z,86.87
2022-09-23T19:01:59.683Z,87.20
2022-09-23T19:04:29.342Z,86.86
2022-09-23T19:06:58.213Z,86.10
2022-09-23T19:09:26.684Z,86.75
2022-09-23T19:11:54.911Z,87.55
2022-09-23T19:14:23.808Z,87.52
2022-09-23T19:16:52.218Z,87.97
2022-09-23T19:19:20.383Z,88.37
2022-09-23T19:21:48.523Z,88.46
2022-09-23T19:24:20.364Z,88.11
2022-09-23T19:26:50.432Z,87.72
2022-09-23T19:29:23.323Z,87.29
2022-09-23T19:31:51.364Z,86.49
2022-09-23T19:34:24.054Z,86.13
2022-09-23T19:36:53.065Z,86.12
2022-09-23T19:39:23.674Z,86.86
2022-09-23T19:41:52.809Z,87.51
2022-09-23T19:44:21.039Z,87.34
2022-09-23T19:46:55.112Z,88.40
2022-09-23T19:49:26.833Z,88.60
2022-09-23T19:51:56.347Z,88.03
2022-09-23T19:54:27.774Z,88.55
2022-09-23T19:56:56.461Z,89.57
2022-09-23T19:59:26.687Z,88.99
2022-09-23T20:01:55.046Z,89.04
2022-09-23T20:04:23.414Z,89.60
2022-09-23T20:06:51.756Z,89.99
2022-09-23T20:09:19.793Z,90.15
2022-09-23T20:11:47.866Z,90.62
2022-09-23T20:14:15.786Z,90.74
2022-09-23T20:16:44.446Z,91.02
2022-09-23T20:19:13.090Z,92.02
2022-09-23T20:21:41.037Z,92.51
2022-09-23T20:24:09.752Z,92.81
2022-09-23T20:26:56.415Z,92.50
2022-09-23T20:29:24.401Z,92.88
2022-09-23T20:31:52.407Z,93.15
2022-09-23T20:34:21.311Z,92.77
2022-09-23T20:36:49.305Z,92.00
2022-09-23T20:39:17.844Z,91.66
2022-09-23T20:41:46.251Z,91.10
2022-09-23T20:44:14.615Z,90.93
2022-09-23T20:46:48.465Z,91.31
2022-09-23T20:49:18.077Z,91.94
2022-09-23T20:51:50.542Z,91.84
2022-09-23T20:54:19.347Z,91.20
2022-09-23T20:56:48.805Z,91.43
2022-09-23T20:59:18.427Z,92.35
2022-09-23T21:01:47.906Z,92.65
2022-09-23T21:04:16.287Z,92.84
2022-09-23T21:06:44.317Z,93.45
2022-09-23T21:09:12.487Z,93.05
2022-09-23T21:11:40.701Z,92.95
2022-09-23T21:14:08.771Z,92.73
2022-09-23T21:16:36.873Z,93.06
2022-09-23T21:19:08.120Z,93.31
2022-09-23T21:21:36.426Z,93.32
2022-09-23T21:24:31.342Z,93.42
2022-09-23T21:26:52.614Z,93.82
2022-09-23T21:29:20.634Z,93.31
2022-09-23T21:31:49.839Z,93.75
2022-09-23T21:34:19.442Z,94.16
2022-09-23T21:36:48.137Z,93.85
2022-09-23T21:39:16.309Z,94.47
2022-09-23T21:41:44.396Z,94.63
2022-09-23T21:44:12.300Z,94.93
2022-09-23T21:46:40.312Z,94.68
2022-09-23T21:49:09.294Z,95.21
2022-09-23T21:51:41.350Z,95.48
2022-09-23T21:54:16.015Z,95.62
2022-09-23T21:56:44.610Z,95.29
2022-09-23T21:59:13.051Z,95.30
2022-09-23T22:01:45.207Z,95.93
2022-09-23T22:04:19.186Z,96.36
2022-09-23T22:06:49.741Z,96.22
2022-09-23T22:09:20.023Z,95.98
2022-09-23T22:12:09.787Z,96.21
2022-09-23T22:14:39.186Z,95.81
2022-09-23T22:17:10.628Z,95.76
2022-09-23T22:19:45.857Z,96.23
2022-09-23T22:22:17.829Z,96.39
2022-09-23T22:24:47.794Z,96.39
2022-09-23T22:27:18.243Z,96.46
2022-09-23T22:30:04.745Z,96.40
2022-09-23T22:32:43.660Z,96.38
2022-09-23T22:35:16.826Z,96.57
2022-09-23T22:37:46.254Z,96.51
2022-09-23T22:40:15.738Z,96.32
2022-09-23T22:42:44.237Z,96.62
2022-09-23T22:45:13.349Z,96.90
2022-09-23T22:47:45.618Z,96.94
2022-09-23T22:50:14.865Z,97.11
2022-09-23T22:52:43.410Z,97.07
2022-09-23T22:55:12.315Z,97.00
2022-09-23T22:57:40.233Z,97.02
2022-09-23T23:00:09.568Z,96.83
2022-09-23T23:02:37.590Z,96.74
2022-09-23T23:05:06.043Z,96.29
2022-09-23T23:07:36.315Z,96.55
2022-09-23T23:10:04.799Z,97.28
2022-09-23T23:12:33.689Z,97.45
2022-09-23T23:15:01.678Z,97.99
2022-09-23T23:17:30.044Z,97.92
2022-09-23T23:19:58.104Z,98.22
2022-09-23T23:22:28.671Z,98.32
2022-09-23T23:24:56.928Z,98.06
2022-09-23T23:27:24.841Z,98.15
2022-09-23T23:29:52.929Z,98.16
2022-09-23T23:32:20.836Z,98.12
2022-09-23T23:34:48.812Z,98.32
2022-09-23T23:37:20.618Z,98.65
2022-09-23T23:39:48.948Z,98.37
2022-09-23T23:42:17.158Z,98.46
2022-09-23T23:44:45.284Z,98.66
2022-09-23T23:47:13.197Z,98.23
2022-09-23T23:49:41.212Z,98.46
2022-09-23T23:52:09.247Z,98.90
2022-09-23T23:54:38.065Z,98.79
2022-09-23T23:57:06.033Z,98.60
2022-09-23T23:59:34.534Z,98.52
